sensor_id;sensor_type;location;lat;lon;timestamp;pressure;altitude;pressure_sealevel;temperature;humidity
42105;BME280;68365;51.472;5.712;2023-04-15T06:09:56;100786.22;;;14.94;100.00
42105;BME280;68365;51.472;5.712;2023-04-15T06:51:41;100867.50;;;14.99;100.00
42105;BME280;68365;51.472;5.712;2023-04-15T07:02:27;100884.53;;;15.09;100.00
42105;BME280;68365;51.472;5.712;2023-04-15T07:12:49;100896.63;;;15.32;100.00
42105;BME280;68365;51.472;5.712;2023-04-15T07:30:37;100923.97;;;15.51;100.00
42105;BME280;68365;51.472;5.712;2023-04-15T07:33:04;100927.03;;;15.55;100.00
42105;BME280;68365;51.472;5.712;2023-04-15T07:35:30;100939.22;;;15.47;100.00
42105;BME280;68365;51.472;5.712;2023-04-15T07:37:56;100941.47;;;15.51;100.00
42105;BME280;68365;51.472;5.712;2023-04-15T07:44:17;100940.34;;;15.60;100.00
42105;BME280;68365;51.472;5.712;2023-04-15T07:47:25;100945.84;;;15.65;100.00
42105;BME280;68365;51.472;5.712;2023-04-15T07:49:51;100941.31;;;15.74;100.00
42105;BME280;68365;51.472;5.712;2023-04-15T07:52:17;100943.75;;;15.75;100.00
42105;BME280;68365;51.472;5.712;2023-04-15T07:55:31;100959.63;;;15.74;100.00
42105;BME280;68365;51.472;5.712;2023-04-15T08:01:51;100955.38;;;15.73;100.00
42105;BME280;68365;51.472;5.712;2023-04-15T08:04:16;100970.72;;;15.76;100.00
42105;BME280;68365;51.472;5.712;2023-04-15T08:06:42;100975.56;;;15.79;100.00
42105;BME280;68365;51.472;5.712;2023-04-15T08:09:08;100965.72;;;15.81;100.00
42105;BME280;68365;51.472;5.712;2023-04-15T08:11:39;100975.66;;;15.85;100.00
42105;BME280;68365;51.472;5.712;2023-04-15T08:14:23;100972.59;;;15.82;100.00
42105;BME280;68365;51.472;5.712;2023-04-15T08:21:16;100997.22;;;15.87;100.00
42105;BME280;68365;51.472;5.712;2023-04-15T08:27:06;100996.94;;;15.82;100.00
42105;BME280;68365;51.472;5.712;2023-04-15T08:29:55;100994.34;;;15.82;100.00
42105;BME280;68365;51.472;5.712;2023-04-15T08:32:23;100991.47;;;15.77;100.00
42105;BME280;68365;51.472;5.712;2023-04-15T08:34:51;101006.81;;;15.80;100.00
42105;BME280;68365;51.472;5.712;2023-04-15T08:37:20;101015.03;;;15.77;100.00
42105;BME280;68365;51.472;5.712;2023-04-15T08:40:09;101006.84;;;15.65;100.00
42105;BME280;68365;51.472;5.712;2023-04-15T08:42:44;101011.69;;;15.68;100.00
42105;BME280;68365;51.472;5.712;2023-04-15T08:45:34;101022.97;;;15.69;100.00
42105;BME280;68365;51.472;5.712;2023-04-15T08:48:12;101023.59;;;15.71;100.00
42105;BME280;68365;51.472;5.712;2023-04-15T08:50:44;101028.66;;;15.73;100.00
42105;BME280;68365;51.472;5.712;2023-04-15T08:53:11;101041.91;;;15.71;100.00
42105;BME280;68365;51.472;5.712;2023-04-15T08:55:45;101039.47;;;15.69;100.00
42105;BME280;68365;51.472;5.712;2023-04-15T08:58:12;101037.84;;;15.68;100.00
42105;BME280;68365;51.472;5.712;2023-04-15T09:00:44;101045.53;;;15.70;100.00
42105;BME280;68365;51.472;5.712;2023-04-15T09:03:15;101047.97;;;15.72;100.00
42105;BME280;68365;51.472;5.712;2023-04-15T09:05:42;101057.28;;;15.74;100.00
42105;BME280;68365;51.472;5.712;2023-04-15T09:08:08;101052.03;;;15.74;100.00
42105;BME280;68365;51.472;5.712;2023-04-15T09:10:34;101057.28;;;15.74;100.00
42105;BME280;68365;51.472;5.712;2023-04-15T09:13:00;101059.72;;;15.76;100.00
42105;BME280;68365;51.472;5.712;2023-04-15T09:15:28;101070.19;;;15.76;100.00
42105;BME280;68365;51.472;5.712;2023-04-15T09:17:55;101063.53;;;15.73;100.00
42105;BME280;68365;51.472;5.712;2023-04-15T09:20:23;101077.91;;;15.84;100.00
42105;BME280;68365;51.472;5.712;2023-04-15T09:22:50;101065.19;;;15.81;100.00
42105;BME280;68365;51.472;5.712;2023-04-15T09:27:58;101079.97;;;15.88;100.00
42105;BME280;68365;51.472;5.712;2023-04-15T09:30:28;101076.91;;;15.85;100.00
42105;BME280;68365;51.472;5.712;2023-04-15T09:33:02;101089.25;;;15.91;100.00
42105;BME280;68365;51.472;5.712;2023-04-15T09:35:35;101081.34;;;15.69;100.00
42105;BME280;68365;51.472;5.712;2023-04-15T09:38:07;101090.59;;;15.51;100.00
42105;BME280;68365;51.472;5.712;2023-04-15T09:40:39;101089.97;;;15.48;100.00
42105;BME280;68365;51.472;5.712;2023-04-15T09:43:08;101080.47;;;15.62;100.00
42105;BME280;68365;51.472;5.712;2023-04-15T09:45:35;101090.97;;;15.33;100.00
42105;BME280;68365;51.472;5.712;2023-04-15T09:48:23;101101.34;;;15.26;98.17
42105;BME280;68365;51.472;5.712;2023-04-15T09:50:52;101095.94;;;15.13;96.54
42105;BME280;68365;51.472;5.712;2023-04-15T09:53:23;101106.94;;;15.08;92.22
42105;BME280;68365;51.472;5.712;2023-04-15T09:55:51;101109.25;;;15.03;91.24
42105;BME280;68365;51.472;5.712;2023-04-15T09:58:26;101120.19;;;15.21;100.00
42105;BME280;68365;51.472;5.712;2023-04-15T10:00:55;101130.03;;;15.34;100.00
42105;BME280;68365;51.472;5.712;2023-04-15T10:03:27;101120.81;;;15.53;100.00
42105;BME280;68365;51.472;5.712;2023-04-15T10:05:55;101125.31;;;15.59;100.00
42105;BME280;68365;51.472;5.712;2023-04-15T10:08:24;101133.25;;;15.66;100.00
42105;BME280;68365;51.472;5.712;2023-04-15T10:10:51;101130.81;;;15.64;100.00
42105;BME280;68365;51.472;5.712;2023-04-15T10:13:24;101125.56;;;15.64;100.00
42105;BME280;68365;51.472;5.712;2023-04-15T10:16:15;101133.69;;;15.69;100.00
42105;BME280;68365;51.472;5.712;2023-04-15T10:18:47;101125.56;;;15.64;100.00
42105;BME280;68365;51.472;5.712;2023-04-15T10:21:16;101135.50;;;15.69;100.00
42105;BME280;68365;51.472;5.712;2023-04-15T10:23:44;101130.28;;;15.69;100.00
42105;BME280;68365;51.472;5.712;2023-04-15T10:26:12;101133.69;;;15.69;100.00
42105;BME280;68365;51.472;5.712;2023-04-15T10:28:40;101137.13;;;15.70;100.00
42105;BME280;68365;51.472;5.712;2023-04-15T10:31:06;101129.09;;;15.72;100.00
42105;BME280;68365;51.472;5.712;2023-04-15T10:33:33;101128.13;;;15.73;100.00
42105;BME280;68365;51.472;5.712;2023-04-15T10:36:00;101140.84;;;15.76;100.00
42105;BME280;68365;51.472;5.712;2023-04-15T10:38:40;101138.06;;;15.77;100.00
42105;BME280;68365;51.472;5.712;2023-04-15T10:41:21;101141.66;;;15.76;100.00
42105;BME280;68365;51.472;5.712;2023-04-15T10:46:38;101137.03;;;15.78;100.00
42105;BME280;68365;51.472;5.712;2023-04-15T10:49:16;101143.47;;;15.76;100.00
42105;BME280;68365;51.472;5.712;2023-04-15T10:52:07;101153.75;;;15.77;100.00
42105;BME280;68365;51.472;5.712;2023-04-15T10:54:33;101151.31;;;15.76;100.00
42105;BME280;68365;51.472;5.712;2023-04-15T10:59:31;101149.97;;;15.80;100.00
42105;BME280;68365;51.472;5.712;2023-04-15T11:02:01;101154.56;;;15.78;100.00
42105;BME280;68365;51.472;5.712;2023-04-15T11:04:54;101154.19;;;15.81;100.00
42105;BME280;68365;51.472;5.712;2023-04-15T11:07:39;101163.50;;;15.83;100.00
42105;BME280;68365;51.472;5.712;2023-04-15T11:12:50;101170.91;;;15.80;100.00
42105;BME280;68365;51.472;5.712;2023-04-15T11:15:36;101160.44;;;15.80;100.00
42105;BME280;68365;51.472;5.712;2023-04-15T11:18:17;101169.38;;;15.85;100.00
42105;BME280;68365;51.472;5.712;2023-04-15T11:20:45;101159.88;;;15.84;100.00
42105;BME280;68365;51.472;5.712;2023-04-15T11:23:12;101166.91;;;15.84;100.00
42105;BME280;68365;51.472;5.712;2023-04-15T11:25:38;101168.00;;;15.89;100.00
42105;BME280;68365;51.472;5.712;2023-04-15T11:28:04;101167.28;;;15.96;100.00
42105;BME280;68365;51.472;5.712;2023-04-15T11:30:34;101175.13;;;15.96;100.00
42105;BME280;68365;51.472;5.712;2023-04-15T11:33:05;101182.88;;;16.04;100.00
42105;BME280;68365;51.472;5.712;2023-04-15T11:35:32;101179.16;;;15.98;100.00
42105;BME280;68365;51.472;5.712;2023-04-15T11:37:58;101177.63;;;16.04;100.00
42105;BME280;68365;51.472;5.712;2023-04-15T11:40:29;101182.88;;;16.04;100.00
42105;BME280;68365;51.472;5.712;2023-04-15T11:43:21;101182.59;;;15.99;100.00
42105;BME280;68365;51.472;5.712;2023-04-15T11:45:59;101190.63;;;15.97;100.00
42105;BME280;68365;51.472;5.712;2023-04-15T11:48:33;101189.56;;;15.92;100.00
42105;BME280;68365;51.472;5.712;2023-04-15T11:53:47;101200.69;;;15.94;100.00
42105;BME280;68365;51.472;5.712;2023-04-15T11:56:18;101190.19;;;15.94;100.00
42105;BME280;68365;51.472;5.712;2023-04-15T11:58:45;101185.78;;;15.94;100.00
42105;BME280;68365;51.472;5.712;2023-04-15T12:01:12;101194.25;;;15.96;100.00
42105;BME280;68365;51.472;5.712;2023-04-15T12:03:44;101199.09;;;15.99;100.00
42105;BME280;68365;51.472;5.712;2023-04-15T12:06:19;101206.06;;;16.07;100.00
42105;BME280;68365;51.472;5.712;2023-04-15T12:08:58;101203.63;;;16.05;100.00
42105;BME280;68365;51.472;5.712;2023-04-15T12:11:47;101199.00;;;16.07;100.00
42105;BME280;68365;51.472;5.712;2023-04-15T12:14:28;101205.25;;;16.06;100.00
42105;BME280;68365;51.472;5.712;2023-04-15T12:17:01;101205.59;;;16.03;100.00
42105;BME280;68365;51.472;5.712;2023-04-15T12:19:39;101201.19;;;16.04;100.00
42105;BME280;68365;51.472;5.712;2023-04-15T12:22:13;101206.22;;;16.05;100.00
42105;BME280;68365;51.472;5.712;2023-04-15T12:24:42;101210.09;;;16.09;100.00
42105;BME280;68365;51.472;5.712;2023-04-15T12:27:15;101209.47;;;16.07;100.00
42105;BME280;68365;51.472;5.712;2023-04-15T12:29:42;101211.13;;;16.08;100.00
42105;BME280;68365;51.472;5.712;2023-04-15T12:32:16;101217.34;;;16.07;100.00
42105;BME280;68365;51.472;5.712;2023-04-15T12:34:50;101222.56;;;16.07;100.00
42105;BME280;68365;51.472;5.712;2023-04-15T12:37:16;101218.34;;;16.06;100.00
42105;BME280;68365;51.472;5.712;2023-04-15T12:39:44;101230.44;;;16.07;100.00
42105;BME280;68365;51.472;5.712;2023-04-15T12:42:11;101233.88;;;16.08;100.00
42105;BME280;68365;51.472;5.712;2023-04-15T12:44:38;101237.41;;;16.00;100.00
42105;BME280;68365;51.472;5.712;2023-04-15T12:47:04;101238.13;;;15.94;100.00
42105;BME280;68365;51.472;5.712;2023-04-15T12:49:31;101232.09;;;15.94;100.00
42105;BME280;68365;51.472;5.712;2023-04-15T12:51:58;101230.84;;;15.89;100.00
42105;BME280;68365;51.472;5.712;2023-04-15T12:54:25;101244.19;;;15.95;100.00
42105;BME280;68365;51.472;5.712;2023-04-15T12:56:52;101237.97;;;15.96;100.00
42105;BME280;68365;51.472;5.712;2023-04-15T12:59:19;101235.50;;;15.94;100.00
42105;BME280;68365;51.472;5.712;2023-04-15T13:01:47;101239.31;;;15.92;100.00
42105;BME280;68365;51.472;5.712;2023-04-15T13:04:13;101247.59;;;15.95;100.00
42105;BME280;68365;51.472;5.712;2023-04-15T13:06:40;101246.78;;;15.95;100.00
42105;BME280;68365;51.472;5.712;2023-04-15T13:09:06;101258.06;;;15.95;100.00
42105;BME280;68365;51.472;5.712;2023-04-15T13:11:33;101252.66;;;15.97;100.00
42105;BME280;68365;51.472;5.712;2023-04-15T13:14:05;101260.97;;;16.00;100.00
42105;BME280;68365;51.472;5.712;2023-04-15T13:16:32;101261.16;;;15.99;100.00
42105;BME280;68365;51.472;5.712;2023-04-15T13:18:59;101273.50;;;16.05;100.00
42105;BME280;68365;51.472;5.712;2023-04-15T13:21:26;101265.81;;;16.03;100.00
42105;BME280;68365;51.472;5.712;2023-04-15T13:23:52;101264.28;;;16.09;100.00
42105;BME280;68365;51.472;5.712;2023-04-15T13:26:18;101271.53;;;16.07;100.00
42105;BME280;68365;51.472;5.712;2023-04-15T13:28:44;101263.94;;;16.12;100.00
42105;BME280;68365;51.472;5.712;2023-04-15T13:31:10;101276.31;;;16.18;100.00
42105;BME280;68365;51.472;5.712;2023-04-15T13:33:37;101270.00;;;16.13;100.00
42105;BME280;68365;51.472;5.712;2023-04-15T13:36:03;101279.84;;;16.11;100.00
42105;BME280;68365;51.472;5.712;2023-04-15T13:38:28;101283.09;;;16.13;100.00
42105;BME280;68365;51.472;5.712;2023-04-15T13:40:54;101287.06;;;16.08;100.00
42105;BME280;68365;51.472;5.712;2023-04-15T13:43:20;101285.81;;;16.04;100.00
42105;BME280;68365;51.472;5.712;2023-04-15T13:45:47;101299.59;;;16.13;100.00
42105;BME280;68365;51.472;5.712;2023-04-15T13:48:13;101290.03;;;16.20;100.00
42105;BME280;68365;51.472;5.712;2023-04-15T13:50:39;101290.94;;;16.13;100.00
42105;BME280;68365;51.472;5.712;2023-04-15T13:53:10;101298.72;;;16.06;100.00
42105;BME280;68365;51.472;5.712;2023-04-15T13:55:36;101303.13;;;16.05;100.00
42105;BME280;68365;51.472;5.712;2023-04-15T13:58:09;101294.84;;;16.02;100.00
42105;BME280;68365;51.472;5.712;2023-04-15T14:00:35;101291.84;;;16.05;100.00
42105;BME280;68365;51.472;5.712;2023-04-15T14:03:02;101304.13;;;16.04;100.00
42105;BME280;68365;51.472;5.712;2023-04-15T14:05:27;101300.69;;;16.04;100.00
42105;BME280;68365;51.472;5.712;2023-04-15T14:07:53;101311.81;;;16.06;100.00
42105;BME280;68365;51.472;5.712;2023-04-15T14:10:19;101310.16;;;16.05;100.00
42105;BME280;68365;51.472;5.712;2023-04-15T14:12:45;101322.47;;;16.04;100.00
42105;BME280;68365;51.472;5.712;2023-04-15T14:15:11;101329.50;;;16.04;100.00
42105;BME280;68365;51.472;5.712;2023-04-15T14:17:36;101322.00;;;16.01;100.00
42105;BME280;68365;51.472;5.712;2023-04-15T14:20:06;101332.94;;;16.04;100.00
42105;BME280;68365;51.472;5.712;2023-04-15T14:22:32;101338.81;;;16.06;100.00
42105;BME280;68365;51.472;5.712;2023-04-15T14:24:58;101342.59;;;16.04;100.00
42105;BME280;68365;51.472;5.712;2023-04-15T14:27:25;101340.97;;;16.03;100.00
42105;BME280;68365;51.472;5.712;2023-04-15T14:29:51;101358.31;;;16.04;100.00
42105;BME280;68365;51.472;5.712;2023-04-15T14:32:19;101352.25;;;16.03;100.00
42105;BME280;68365;51.472;5.712;2023-04-15T14:34:45;101350.81;;;16.01;100.00
42105;BME280;68365;51.472;5.712;2023-04-15T14:37:10;101356.84;;;16.01;100.00
42105;BME280;68365;51.472;5.712;2023-04-15T14:39:36;101367.16;;;16.03;100.00
42105;BME280;68365;51.472;5.712;2023-04-15T14:42:02;101366.81;;;16.06;100.00
42105;BME280;68365;51.472;5.712;2023-04-15T14:44:28;101371.84;;;16.07;100.00
42105;BME280;68365;51.472;5.712;2023-04-15T14:46:54;101381.69;;;16.05;100.00
42105;BME280;68365;51.472;5.712;2023-04-15T14:49:20;101381.69;;;16.05;100.00
42105;BME280;68365;51.472;5.712;2023-04-15T14:51:46;101386.75;;;16.07;100.00
42105;BME280;68365;51.472;5.712;2023-04-15T14:54:12;101386.91;;;16.05;100.00
42105;BME280;68365;51.472;5.712;2023-04-15T14:56:37;101401.03;;;16.04;100.00
42105;BME280;68365;51.472;5.712;2023-04-15T14:59:03;101403.00;;;16.02;100.00
42105;BME280;68365;51.472;5.712;2023-04-15T15:01:29;101394.91;;;16.12;100.00
42105;BME280;68365;51.472;5.712;2023-04-15T15:03:55;101399.28;;;16.12;100.00
42105;BME280;68365;51.472;5.712;2023-04-15T15:06:22;101408.16;;;16.11;100.00
42105;BME280;68365;51.472;5.712;2023-04-15T15:08:48;101408.50;;;16.07;100.00
42105;BME280;68365;51.472;5.712;2023-04-15T15:11:15;101414.28;;;16.03;100.00
42105;BME280;68365;51.472;5.712;2023-04-15T15:13:41;101411.03;;;16.01;100.00
42105;BME280;68365;51.472;5.712;2023-04-15T15:16:07;101415.28;;;16.02;100.00
42105;BME280;68365;51.472;5.712;2023-04-15T15:18:34;101411.41;;;16.13;100.00
42105;BME280;68365;51.472;5.712;2023-04-15T15:21:00;101413.75;;;16.07;100.00
42105;BME280;68365;51.472;5.712;2023-04-15T15:23:26;101425.22;;;16.21;100.00
42105;BME280;68365;51.472;5.712;2023-04-15T15:25:52;101432.13;;;16.22;100.00
42105;BME280;68365;51.472;5.712;2023-04-15T15:28:18;101428.78;;;16.28;100.00
42105;BME280;68365;51.472;5.712;2023-04-15T15:30:44;101432.84;;;16.31;100.00
42105;BME280;68365;51.472;5.712;2023-04-15T15:33:10;101435.00;;;16.27;100.00
42105;BME280;68365;51.472;5.712;2023-04-15T15:35:35;101429.84;;;16.19;100.00
42105;BME280;68365;51.472;5.712;2023-04-15T15:38:01;101440.41;;;16.26;100.00
42105;BME280;68365;51.472;5.712;2023-04-15T15:40:27;101441.75;;;16.22;100.00
42105;BME280;68365;51.472;5.712;2023-04-15T15:42:53;101445.47;;;16.13;100.00
42105;BME280;68365;51.472;5.712;2023-04-15T15:45:20;101448.25;;;16.11;100.00
42105;BME280;68365;51.472;5.712;2023-04-15T15:47:46;101441.56;;;16.08;100.00
42105;BME280;68365;51.472;5.712;2023-04-15T15:50:12;101454.13;;;16.13;100.00
42105;BME280;68365;51.472;5.712;2023-04-15T15:52:39;101458.25;;;16.07;100.00
42105;BME280;68365;51.472;5.712;2023-04-15T15:55:05;101467.75;;;16.08;100.00
42105;BME280;68365;51.472;5.712;2023-04-15T15:57:31;101464.84;;;16.03;100.00
42105;BME280;68365;51.472;5.712;2023-04-15T15:59:57;101470.72;;;16.05;100.00
42105;BME280;68365;51.472;5.712;2023-04-15T16:02:23;101475.97;;;16.05;100.00
42105;BME280;68365;51.472;5.712;2023-04-15T16:04:49;101486.44;;;16.05;100.00
42105;BME280;68365;51.472;5.712;2023-04-15T16:07:16;101488.25;;;16.05;100.00
42105;BME280;68365;51.472;5.712;2023-04-15T16:09:42;101502.97;;;16.06;100.00
42105;BME280;68365;51.472;5.712;2023-04-15T16:12:08;101508.03;;;16.07;100.00
42105;BME280;68365;51.472;5.712;2023-04-15T16:14:34;101508.38;;;16.04;100.00
42105;BME280;68365;51.472;5.712;2023-04-15T16:17:01;101505.31;;;16.01;100.00
42105;BME280;68365;51.472;5.712;2023-04-15T16:19:26;101515.25;;;16.05;100.00
42105;BME280;68365;51.472;5.712;2023-04-15T16:21:52;101518.06;;;16.04;100.00
42105;BME280;68365;51.472;5.712;2023-04-15T16:24:18;101514.59;;;16.03;100.00
42105;BME280;68365;51.472;5.712;2023-04-15T16:26:44;101525.44;;;16.00;100.00
42105;BME280;68365;51.472;5.712;2023-04-15T16:29:10;101525.28;;;16.02;100.00
42105;BME280;68365;51.472;5.712;2023-04-15T16:31:35;101524.09;;;16.04;100.00
42105;BME280;68365;51.472;5.712;2023-04-15T16:34:05;101528.06;;;16.00;100.00
42105;BME280;68365;51.472;5.712;2023-04-15T16:36:33;101530.50;;;16.02;100.00
42105;BME280;68365;51.472;5.712;2023-04-15T16:38:59;101537.19;;;16.04;100.00
42105;BME280;68365;51.472;5.712;2023-04-15T16:41:25;101540.78;;;16.03;100.00
42105;BME280;68365;51.472;5.712;2023-04-15T16:43:50;101540.78;;;16.03;100.00
42105;BME280;68365;51.472;5.712;2023-04-15T16:46:16;101560.59;;;16.06;100.00
42105;BME280;68365;51.472;5.712;2023-04-15T16:48:42;101564.66;;;16.08;100.00
42105;BME280;68365;51.472;5.712;2023-04-15T16:51:08;101563.22;;;16.06;100.00
42105;BME280;68365;51.472;5.712;2023-04-15T16:53:33;101566.00;;;16.04;100.00
42105;BME280;68365;51.472;5.712;2023-04-15T16:55:59;101563.22;;;16.06;100.00
42105;BME280;68365;51.472;5.712;2023-04-15T16:58:25;101564.56;;;16.02;100.00
42105;BME280;68365;51.472;5.712;2023-04-15T17:00:53;101566.00;;;16.04;100.00
42105;BME280;68365;51.472;5.712;2023-04-15T17:03:19;101566.75;;;16.13;100.00
42105;BME280;68365;51.472;5.712;2023-04-15T17:05:44;101581.94;;;16.18;100.00
42105;BME280;68365;51.472;5.712;2023-04-15T17:08:10;101583.22;;;16.22;100.00
42105;BME280;68365;51.472;5.712;2023-04-15T17:10:36;101587.38;;;16.16;100.00
42105;BME280;68365;51.472;5.712;2023-04-15T17:13:02;101582.00;;;16.09;100.00
42105;BME280;68365;51.472;5.712;2023-04-15T17:15:28;101582.94;;;16.17;100.00
42105;BME280;68365;51.472;5.712;2023-04-15T17:17:54;101580.84;;;16.12;100.00
42105;BME280;68365;51.472;5.712;2023-04-15T17:20:20;101583.53;;;16.04;100.00
42105;BME280;68365;51.472;5.712;2023-04-15T17:22:47;101592.34;;;16.03;100.00
42105;BME280;68365;51.472;5.712;2023-04-15T17:25:13;101594.97;;;16.03;100.00
42105;BME280;68365;51.472;5.712;2023-04-15T17:27:40;101600.22;;;16.03;100.00
42105;BME280;68365;51.472;5.712;2023-04-15T17:30:08;101598.41;;;16.03;100.00
42105;BME280;68365;51.472;5.712;2023-04-15T17:32:34;101603.94;;;16.08;100.00
42105;BME280;68365;51.472;5.712;2023-04-15T17:35:02;101593.00;;;16.05;100.00
42105;BME280;68365;51.472;5.712;2023-04-15T17:37:31;101605.66;;;15.93;100.00
42105;BME280;68365;51.472;5.712;2023-04-15T17:39:57;101605.63;;;16.01;100.00
42105;BME280;68365;51.472;5.712;2023-04-15T17:42:23;101607.75;;;16.06;100.00
42105;BME280;68365;51.472;5.712;2023-04-15T17:44:49;101615.44;;;15.99;100.00
42105;BME280;68365;51.472;5.712;2023-04-15T17:47:15;101619.72;;;16.00;100.00
42105;BME280;68365;51.472;5.712;2023-04-15T17:49:42;101627.91;;;15.97;100.00
42105;BME280;68365;51.472;5.712;2023-04-15T17:52:08;101626.28;;;15.96;100.00
42105;BME280;68365;51.472;5.712;2023-04-15T17:54:34;101629.72;;;15.97;100.00
42105;BME280;68365;51.472;5.712;2023-04-15T17:57:00;101634.94;;;15.97;100.00
42105;BME280;68365;51.472;5.712;2023-04-15T17:59:27;101643.16;;;15.94;100.00
42105;BME280;68365;51.472;5.712;2023-04-15T18:01:54;101640.50;;;16.02;100.00
42105;BME280;68365;51.472;5.712;2023-04-15T18:04:20;101645.91;;;16.00;100.00
42105;BME280;68365;51.472;5.712;2023-04-15T18:06:46;101647.72;;;16.00;100.00
42105;BME280;68365;51.472;5.712;2023-04-15T18:09:11;101649.69;;;15.98;100.00
42105;BME280;68365;51.472;5.712;2023-04-15T18:11:38;101653.28;;;15.97;100.00
42105;BME280;68365;51.472;5.712;2023-04-15T18:14:04;101657.06;;;15.94;100.00
42105;BME280;68365;51.472;5.712;2023-04-15T18:16:31;101660.50;;;15.95;100.00
42105;BME280;68365;51.472;5.712;2023-04-15T18:18:57;101653.63;;;15.94;100.00
42105;BME280;68365;51.472;5.712;2023-04-15T18:21:22;101669.16;;;15.95;100.00
42105;BME280;68365;51.472;5.712;2023-04-15T18:23:48;101662.28;;;15.94;100.00
42105;BME280;68365;51.472;5.712;2023-04-15T18:26:14;101674.22;;;15.97;100.00
42105;BME280;68365;51.472;5.712;2023-04-15T18:28:40;101677.19;;;15.94;100.00
42105;BME280;68365;51.472;5.712;2023-04-15T18:31:06;101678.81;;;15.95;100.00
42105;BME280;68365;51.472;5.712;2023-04-15T18:33:32;101679.97;;;15.92;100.00
42105;BME280;68365;51.472;5.712;2023-04-15T18:35:57;101691.09;;;15.94;100.00
42105;BME280;68365;51.472;5.712;2023-04-15T18:38:23;101688.81;;;15.91;100.00
42105;BME280;68365;51.472;5.712;2023-04-15T18:40:49;101688.66;;;15.93;100.00
42105;BME280;68365;51.472;5.712;2023-04-15T18:43:15;101695.69;;;15.92;100.00
42105;BME280;68365;51.472;5.712;2023-04-15T18:45:41;101701.09;;;15.91;100.00
42105;BME280;68365;51.472;5.712;2023-04-15T18:48:07;101700.94;;;15.92;100.00
42105;BME280;68365;51.472;5.712;2023-04-15T18:50:36;101705.31;;;16.00;100.00
42105;BME280;68365;51.472;5.712;2023-04-15T18:53:02;101707.25;;;16.06;100.00
42105;BME280;68365;51.472;5.712;2023-04-15T18:55:28;101708.44;;;15.95;100.00
42105;BME280;68365;51.472;5.712;2023-04-15T18:57:54;101714.81;;;15.93;100.00
42105;BME280;68365;51.472;5.712;2023-04-15T19:00:20;101716.16;;;15.88;100.00
42105;BME280;68365;51.472;5.712;2023-04-15T19:02:45;101725.47;;;15.91;100.00
42105;BME280;68365;51.472;5.712;2023-04-15T19:05:11;101729.09;;;15.90;100.00
42105;BME280;68365;51.472;5.712;2023-04-15T19:07:37;101732.88;;;15.87;100.00
42105;BME280;68365;51.472;5.712;2023-04-15T19:10:04;101734.66;;;15.87;100.00
42105;BME280;68365;51.472;5.712;2023-04-15T19:12:30;101747.75;;;15.87;100.00
42105;BME280;68365;51.472;5.712;2023-04-15T19:14:56;101750.34;;;15.87;100.00
42105;BME280;68365;51.472;5.712;2023-04-15T19:17:22;101756.59;;;15.86;100.00
42105;BME280;68365;51.472;5.712;2023-04-15T19:19:48;101760.19;;;15.85;100.00
42105;BME280;68365;51.472;5.712;2023-04-15T19:22:14;101763.81;;;15.84;100.00
42105;BME280;68365;51.472;5.712;2023-04-15T19:24:41;101766.41;;;15.84;100.00
42105;BME280;68365;51.472;5.712;2023-04-15T19:27:07;101776.06;;;15.83;100.00
42105;BME280;68365;51.472;5.712;2023-04-15T19:29:32;101775.25;;;15.83;100.00
42105;BME280;68365;51.472;5.712;2023-04-15T19:31:58;101764.97;;;15.81;100.00
42105;BME280;68365;51.472;5.712;2023-04-15T19:34:24;101771.81;;;15.82;100.00
42105;BME280;68365;51.472;5.712;2023-04-15T19:36:50;101775.59;;;15.80;100.00
42105;BME280;68365;51.472;5.712;2023-04-15T19:39:16;101777.41;;;15.79;100.00
42105;BME280;68365;51.472;5.712;2023-04-15T19:41:43;101787.53;;;15.82;100.00
42105;BME280;68365;51.472;5.712;2023-04-15T19:44:09;101780.66;;;15.81;100.00
42105;BME280;68365;51.472;5.712;2023-04-15T19:46:38;101792.91;;;15.81;100.00
42105;BME280;68365;51.472;5.712;2023-04-15T19:49:04;101784.59;;;15.77;100.00
42105;BME280;68365;51.472;5.712;2023-04-15T19:51:30;101783.13;;;15.75;100.00
42105;BME280;68365;51.472;5.712;2023-04-15T19:53:56;101783.75;;;15.77;100.00
42105;BME280;68365;51.472;5.712;2023-04-15T19:56:24;101794.06;;;15.78;100.00
42105;BME280;68365;51.472;5.712;2023-04-15T19:58:50;101797.50;;;15.79;100.00
42105;BME280;68365;51.472;5.712;2023-04-15T20:01:21;101795.72;;;15.79;100.00
42105;BME280;68365;51.472;5.712;2023-04-15T20:03:47;101784.41;;;15.79;100.00
42105;BME280;68365;51.472;5.712;2023-04-15T20:06:14;101789.19;;;15.75;100.00
42105;BME280;68365;51.472;5.712;2023-04-15T20:08:40;101789.00;;;15.77;100.00
42105;BME280;68365;51.472;5.712;2023-04-15T20:11:08;101787.38;;;15.76;100.00
42105;BME280;68365;51.472;5.712;2023-04-15T20:13:35;101791.63;;;15.77;100.00
42105;BME280;68365;51.472;5.712;2023-04-15T20:16:01;101797.69;;;15.77;100.00
42105;BME280;68365;51.472;5.712;2023-04-15T20:18:27;101796.03;;;15.76;100.00
42105;BME280;68365;51.472;5.712;2023-04-15T20:20:53;101795.25;;;15.76;100.00
42105;BME280;68365;51.472;5.712;2023-04-15T20:23:18;101796.69;;;15.78;100.00
42105;BME280;68365;51.472;5.712;2023-04-15T20:25:44;101796.69;;;15.78;100.00
42105;BME280;68365;51.472;5.712;2023-04-15T20:28:10;101800.13;;;15.79;100.00
42105;BME280;68365;51.472;5.712;2023-04-15T20:30:36;101796.03;;;15.76;100.00
42105;BME280;68365;51.472;5.712;2023-04-15T20:33:05;101794.06;;;15.78;100.00
42105;BME280;68365;51.472;5.712;2023-04-15T20:35:32;101796.19;;;15.75;100.00